DLH194 EPKK-EDDF
Flight info
| Callsign | DLH194 |
|---|---|
| Flight time | 1h 22m |
| Altitude | 34000 |
| Route | ADADO DCT UTEVO DCT RAPET T170 GAPLA T178 KERAX KERAX5A |
| Aircraft | A20N/M-SDE2E3FGHIRWXY/LB1 |
Departure
| Time | 2026-05-05 19:03 |
|---|---|
| Airport | Kraków John Paul II International Airport (EPKK) |
Arrival
| Time | 2026-05-05 20:26 |
|---|---|
| Airport | Frankfurt Main Airport (EDDF) |
| Time | Latitude | Longitude | Altitude | Speed | Heading |
|---|---|---|---|---|---|
| 2026-05-05 18:32 | 50.07486 | 19.80210 | 789 ft | 0 kts | 162° |
| 2026-05-05 18:51 | 50.07485 | 19.80210 | 789 ft | 1 kts | 162° |
| 2026-05-05 18:52 | 50.07468 | 19.80219 | 789 ft | 4 kts | 162° |
| 2026-05-05 18:52 | 50.07434 | 19.80245 | 789 ft | 7 kts | 135° |
| 2026-05-05 18:52 | 50.07447 | 19.80356 | 789 ft | 18 kts | 43° |
| 2026-05-05 18:52 | 50.07594 | 19.80412 | 788 ft | 24 kts | 351° |
| 2026-05-05 18:53 | 50.07764 | 19.80355 | 788 ft | 26 kts | 348° |
| 2026-05-05 18:53 | 50.07840 | 19.80331 | 788 ft | 0 kts | 348° |
| 2026-05-05 18:54 | 50.07842 | 19.80330 | 788 ft | 0 kts | 348° |
| 2026-05-05 19:00 | 50.07863 | 19.80323 | 788 ft | 14 kts | 348° |
| 2026-05-05 19:00 | 50.07995 | 19.80273 | 787 ft | 18 kts | 327° |
| 2026-05-05 19:01 | 50.07998 | 19.80120 | 789 ft | 11 kts | 257° |
| 2026-05-05 19:01 | 50.07995 | 19.80103 | 789 ft | 0 kts | 258° |
| 2026-05-05 19:02 | 50.07995 | 19.80097 | 789 ft | 6 kts | 257° |
| 2026-05-05 19:02 | 50.07946 | 19.79748 | 790 ft | 71 kts | 258° |
| 2026-05-05 19:02 | 50.07785 | 19.78596 | 794 ft | 144 kts | 257° |
| 2026-05-05 19:03 | 50.07544 | 19.76916 | 1286 ft | 162 kts | 257° |
| 2026-05-05 19:03 | 50.07301 | 19.75173 | 2083 ft | 169 kts | 253° |
| 2026-05-05 19:03 | 50.07052 | 19.73336 | 2745 ft | 178 kts | 253° |
| 2026-05-05 19:03 | 50.06780 | 19.71371 | 3288 ft | 196 kts | 252° |
| 2026-05-05 19:04 | 50.06466 | 19.69182 | 3805 ft | 218 kts | 252° |
| 2026-05-05 19:04 | 50.06123 | 19.66774 | 4433 ft | 238 kts | 253° |
| 2026-05-05 19:04 | 50.05783 | 19.64178 | 5196 ft | 251 kts | 260° |
| 2026-05-05 19:04 | 50.05876 | 19.61427 | 6154 ft | 258 kts | 271° |
| 2026-05-05 19:05 | 50.06087 | 19.58637 | 7067 ft | 262 kts | 272° |
| 2026-05-05 19:05 | 50.06316 | 19.55828 | 7921 ft | 268 kts | 273° |
| 2026-05-05 19:05 | 50.06566 | 19.52925 | 8775 ft | 275 kts | 274° |
| 2026-05-05 19:05 | 50.06827 | 19.49926 | 9590 ft | 282 kts | 275° |
| 2026-05-05 19:06 | 50.07097 | 19.46866 | 10297 ft | 293 kts | 275° |
| 2026-05-05 19:06 | 50.07383 | 19.43587 | 10595 ft | 317 kts | 275° |
| 2026-05-05 19:06 | 50.07690 | 19.40060 | 10991 ft | 335 kts | 275° |
| 2026-05-05 19:06 | 50.08010 | 19.36431 | 11761 ft | 340 kts | 275° |
| 2026-05-05 19:07 | 50.08334 | 19.32741 | 12544 ft | 345 kts | 275° |
| 2026-05-05 19:07 | 50.08659 | 19.29013 | 13333 ft | 350 kts | 274° |
| 2026-05-05 19:07 | 50.08986 | 19.25234 | 14065 ft | 354 kts | 274° |
| 2026-05-05 19:07 | 50.09310 | 19.21468 | 14796 ft | 357 kts | 275° |
| 2026-05-05 19:08 | 50.09639 | 19.17626 | 15523 ft | 360 kts | 275° |
| 2026-05-05 19:08 | 50.09970 | 19.13741 | 16231 ft | 363 kts | 275° |
| 2026-05-05 19:08 | 50.10303 | 19.09824 | 16938 ft | 366 kts | 275° |
| 2026-05-05 19:08 | 50.10638 | 19.05865 | 17604 ft | 371 kts | 275° |
| 2026-05-05 19:09 | 50.10975 | 19.01857 | 18260 ft | 374 kts | 276° |
| 2026-05-05 19:09 | 50.11315 | 18.97821 | 18874 ft | 377 kts | 276° |
| 2026-05-05 19:09 | 50.11655 | 18.93752 | 19479 ft | 380 kts | 276° |
| 2026-05-05 19:09 | 50.11996 | 18.89659 | 20078 ft | 382 kts | 276° |
| 2026-05-05 19:10 | 50.12338 | 18.85537 | 20668 ft | 385 kts | 276° |
| 2026-05-05 19:10 | 50.12681 | 18.81379 | 21259 ft | 388 kts | 276° |
| 2026-05-05 19:10 | 50.13025 | 18.77186 | 21836 ft | 391 kts | 276° |
| 2026-05-05 19:10 | 50.13370 | 18.72966 | 22404 ft | 394 kts | 276° |
| 2026-05-05 19:11 | 50.13713 | 18.68753 | 22972 ft | 397 kts | 276° |
| 2026-05-05 19:11 | 50.14060 | 18.64462 | 23511 ft | 400 kts | 276° |
| 2026-05-05 19:11 | 50.14409 | 18.60139 | 23964 ft | 404 kts | 276° |
| 2026-05-05 19:11 | 50.14759 | 18.55782 | 24422 ft | 406 kts | 276° |
| 2026-05-05 19:12 | 50.15109 | 18.51397 | 24893 ft | 409 kts | 276° |
| 2026-05-05 19:12 | 50.15459 | 18.46983 | 25348 ft | 411 kts | 276° |
| 2026-05-05 19:12 | 50.15810 | 18.42546 | 25787 ft | 414 kts | 276° |
| 2026-05-05 19:12 | 50.16162 | 18.38067 | 26216 ft | 416 kts | 276° |
| 2026-05-05 19:13 | 50.16514 | 18.33574 | 26644 ft | 419 kts | 276° |
| 2026-05-05 19:13 | 50.16865 | 18.29056 | 27060 ft | 421 kts | 276° |
| 2026-05-05 19:13 | 50.17218 | 18.24503 | 27453 ft | 424 kts | 276° |
| 2026-05-05 19:13 | 50.17570 | 18.19928 | 27843 ft | 426 kts | 276° |
| 2026-05-05 19:14 | 50.17923 | 18.15332 | 28222 ft | 428 kts | 276° |
| 2026-05-05 19:14 | 50.18276 | 18.10694 | 28589 ft | 431 kts | 276° |
| 2026-05-05 19:14 | 50.18628 | 18.06046 | 28941 ft | 433 kts | 276° |
| 2026-05-05 19:14 | 50.18981 | 18.01365 | 29292 ft | 435 kts | 276° |
| 2026-05-05 19:15 | 50.19334 | 17.96666 | 29629 ft | 437 kts | 276° |
| 2026-05-05 19:15 | 50.19681 | 17.92011 | 29952 ft | 439 kts | 276° |
| 2026-05-05 19:15 | 50.20033 | 17.87265 | 30266 ft | 441 kts | 276° |
| 2026-05-05 19:15 | 50.20385 | 17.82494 | 30582 ft | 442 kts | 276° |
| 2026-05-05 19:16 | 50.20736 | 17.77714 | 30896 ft | 444 kts | 275° |
| 2026-05-05 19:16 | 50.20951 | 17.72909 | 31268 ft | 443 kts | 270° |
| 2026-05-05 19:16 | 50.20952 | 17.68108 | 31673 ft | 441 kts | 269° |
| 2026-05-05 19:16 | 50.20961 | 17.63335 | 32173 ft | 438 kts | 269° |
| 2026-05-05 19:17 | 50.20975 | 17.58583 | 32590 ft | 436 kts | 269° |
| 2026-05-05 19:17 | 50.20986 | 17.53859 | 32992 ft | 435 kts | 269° |
| 2026-05-05 19:17 | 50.20998 | 17.49128 | 33331 ft | 435 kts | 270° |
| 2026-05-05 19:17 | 50.21061 | 17.44393 | 33642 ft | 435 kts | 270° |
| 2026-05-05 19:18 | 50.21153 | 17.39748 | 33787 ft | 432 kts | 271° |
| 2026-05-05 19:18 | 50.21249 | 17.35076 | 33788 ft | 430 kts | 271° |
| 2026-05-05 19:18 | 50.21426 | 17.25730 | 33796 ft | 432 kts | 270° |
| 2026-05-05 19:19 | 50.21584 | 17.16351 | 33791 ft | 431 kts | 270° |
| 2026-05-05 19:19 | 50.21727 | 17.06992 | 33790 ft | 432 kts | 270° |
| 2026-05-05 19:20 | 50.21860 | 16.97607 | 33786 ft | 432 kts | 270° |
| 2026-05-05 19:20 | 50.21986 | 16.88232 | 33790 ft | 432 kts | 270° |
| 2026-05-05 19:21 | 50.22105 | 16.78854 | 33787 ft | 433 kts | 270° |
| 2026-05-05 19:21 | 50.22217 | 16.69468 | 33783 ft | 431 kts | 270° |
| 2026-05-05 19:22 | 50.22320 | 16.60165 | 33782 ft | 432 kts | 270° |
| 2026-05-05 19:22 | 50.22415 | 16.50787 | 33773 ft | 432 kts | 270° |
| 2026-05-05 19:23 | 50.22504 | 16.41416 | 33774 ft | 432 kts | 269° |
| 2026-05-05 19:23 | 50.22576 | 16.33107 | 33768 ft | 432 kts | 269° |
| 2026-05-05 19:24 | 50.22635 | 16.25741 | 33780 ft | 432 kts | 269° |
| 2026-05-05 19:24 | 50.22703 | 16.16366 | 33767 ft | 431 kts | 269° |
| 2026-05-05 19:25 | 50.22764 | 16.07058 | 33766 ft | 431 kts | 269° |
| 2026-05-05 19:25 | 50.22817 | 15.97637 | 33743 ft | 431 kts | 269° |
| 2026-05-05 19:26 | 50.22862 | 15.88338 | 33737 ft | 431 kts | 269° |
| 2026-05-05 19:26 | 50.22900 | 15.78964 | 33740 ft | 431 kts | 269° |
| 2026-05-05 19:27 | 50.22931 | 15.69576 | 33728 ft | 432 kts | 269° |
| 2026-05-05 19:27 | 50.22954 | 15.60170 | 33729 ft | 433 kts | 269° |
| 2026-05-05 19:28 | 50.22970 | 15.50765 | 33735 ft | 434 kts | 269° |
| 2026-05-05 19:28 | 50.22978 | 15.41328 | 33737 ft | 434 kts | 269° |
| 2026-05-05 19:29 | 50.22978 | 15.31879 | 33753 ft | 435 kts | 268° |
| 2026-05-05 19:29 | 50.22974 | 15.22419 | 33751 ft | 435 kts | 268° |
| 2026-05-05 19:30 | 50.22958 | 15.13014 | 33757 ft | 436 kts | 268° |
| 2026-05-05 19:30 | 50.22935 | 15.03547 | 33760 ft | 435 kts | 268° |
| 2026-05-05 19:31 | 50.22905 | 14.94093 | 33758 ft | 435 kts | 268° |
| 2026-05-05 19:31 | 50.22867 | 14.84634 | 33778 ft | 435 kts | 267° |
| 2026-05-05 19:32 | 50.22824 | 14.75328 | 33747 ft | 428 kts | 267° |
| 2026-05-05 19:32 | 50.22770 | 14.65996 | 33747 ft | 430 kts | 267° |
| 2026-05-05 19:33 | 50.22709 | 14.56667 | 33747 ft | 430 kts | 267° |
| 2026-05-05 19:33 | 50.22642 | 14.47328 | 33752 ft | 430 kts | 267° |
| 2026-05-05 19:34 | 50.22567 | 14.38050 | 33752 ft | 430 kts | 267° |
| 2026-05-05 19:35 | 50.22441 | 14.24037 | 33750 ft | 430 kts | 266° |
| 2026-05-05 19:35 | 50.22346 | 14.14687 | 33752 ft | 430 kts | 266° |
| 2026-05-05 19:36 | 50.22245 | 14.05339 | 33753 ft | 430 kts | 266° |
| 2026-05-05 19:36 | 50.22137 | 13.95999 | 33752 ft | 430 kts | 266° |
| 2026-05-05 19:37 | 50.22021 | 13.86665 | 33738 ft | 431 kts | 265° |
| 2026-05-05 19:37 | 50.21897 | 13.77311 | 33744 ft | 431 kts | 265° |
| 2026-05-05 19:38 | 50.21766 | 13.68005 | 33745 ft | 431 kts | 265° |
| 2026-05-05 19:38 | 50.21627 | 13.58634 | 33748 ft | 432 kts | 265° |
| 2026-05-05 19:39 | 50.21481 | 13.49250 | 33749 ft | 432 kts | 265° |
| 2026-05-05 19:39 | 50.21326 | 13.39865 | 33754 ft | 433 kts | 265° |
| 2026-05-05 19:40 | 50.21163 | 13.30463 | 33762 ft | 433 kts | 265° |
| 2026-05-05 19:40 | 50.20994 | 13.21068 | 33765 ft | 433 kts | 265° |
| 2026-05-05 19:41 | 50.20816 | 13.11672 | 33825 ft | 433 kts | 265° |
| 2026-05-05 19:41 | 50.20632 | 13.02322 | 33837 ft | 433 kts | 265° |
| 2026-05-05 19:42 | 50.20439 | 12.92918 | 33828 ft | 435 kts | 265° |
| 2026-05-05 19:42 | 50.20234 | 12.83362 | 33816 ft | 442 kts | 265° |
| 2026-05-05 19:43 | 50.20024 | 12.73807 | 33816 ft | 440 kts | 265° |
| 2026-05-05 19:43 | 50.19805 | 12.64254 | 33817 ft | 441 kts | 265° |
| 2026-05-05 19:44 | 50.19577 | 12.54686 | 33801 ft | 442 kts | 265° |
| 2026-05-05 19:44 | 50.19340 | 12.44964 | 33801 ft | 450 kts | 265° |
| 2026-05-05 19:45 | 50.19415 | 12.35201 | 33767 ft | 453 kts | 275° |
| 2026-05-05 19:45 | 50.20933 | 12.25681 | 33773 ft | 458 kts | 287° |
| 2026-05-05 19:46 | 50.23093 | 12.16330 | 33786 ft | 458 kts | 287° |
| 2026-05-05 19:46 | 50.25238 | 12.06965 | 33808 ft | 458 kts | 287° |
| 2026-05-05 19:47 | 50.27381 | 11.97572 | 33801 ft | 459 kts | 287° |
| 2026-05-05 19:47 | 50.29543 | 11.88158 | 33643 ft | 460 kts | 287° |
| 2026-05-05 19:47 | 50.30623 | 11.83448 | 33188 ft | 460 kts | 287° |
| 2026-05-05 19:48 | 50.31701 | 11.78727 | 32650 ft | 460 kts | 287° |
| 2026-05-05 19:48 | 50.32414 | 11.75603 | 32296 ft | 460 kts | 287° |
| 2026-05-05 19:48 | 50.33489 | 11.70873 | 31772 ft | 461 kts | 287° |
| 2026-05-05 19:48 | 50.34565 | 11.66130 | 31257 ft | 463 kts | 287° |
| 2026-05-05 19:49 | 50.35641 | 11.61374 | 30754 ft | 465 kts | 287° |
| 2026-05-05 19:49 | 50.36730 | 11.56599 | 30274 ft | 467 kts | 289° |
| 2026-05-05 19:49 | 50.37848 | 11.51819 | 29776 ft | 466 kts | 287° |
| 2026-05-05 19:49 | 50.38895 | 11.47031 | 29208 ft | 461 kts | 287° |
| 2026-05-05 19:50 | 50.39924 | 11.42305 | 28644 ft | 456 kts | 287° |
| 2026-05-05 19:50 | 50.40955 | 11.37642 | 28147 ft | 449 kts | 287° |
| 2026-05-05 19:50 | 50.41986 | 11.33025 | 27609 ft | 447 kts | 287° |
| 2026-05-05 19:50 | 50.43004 | 11.28497 | 27091 ft | 445 kts | 287° |
| 2026-05-05 19:51 | 50.44043 | 11.23882 | 26570 ft | 441 kts | 287° |
| 2026-05-05 19:51 | 50.45061 | 11.19361 | 26061 ft | 437 kts | 287° |
| 2026-05-05 19:51 | 50.45747 | 11.14774 | 25588 ft | 430 kts | 273° |
| 2026-05-05 19:51 | 50.45883 | 11.10163 | 25113 ft | 428 kts | 268° |
| 2026-05-05 19:52 | 50.45868 | 11.05505 | 24642 ft | 424 kts | 267° |
| 2026-05-05 19:52 | 50.45854 | 11.00903 | 24232 ft | 420 kts | 267° |
| 2026-05-05 19:52 | 50.45875 | 10.96334 | 23840 ft | 417 kts | 268° |
| 2026-05-05 19:52 | 50.45927 | 10.91781 | 23448 ft | 415 kts | 269° |
| 2026-05-05 19:53 | 50.45995 | 10.87259 | 22996 ft | 413 kts | 269° |
| 2026-05-05 19:53 | 50.46070 | 10.82767 | 22535 ft | 410 kts | 269° |
| 2026-05-05 19:53 | 50.46146 | 10.78309 | 22084 ft | 407 kts | 269° |
| 2026-05-05 19:53 | 50.46219 | 10.73881 | 21637 ft | 404 kts | 269° |
| 2026-05-05 19:54 | 50.46289 | 10.69487 | 21211 ft | 401 kts | 269° |
| 2026-05-05 19:54 | 50.46356 | 10.65129 | 20779 ft | 398 kts | 269° |
| 2026-05-05 19:54 | 50.46422 | 10.60807 | 20352 ft | 395 kts | 269° |
| 2026-05-05 19:54 | 50.46485 | 10.56508 | 19932 ft | 393 kts | 269° |
| 2026-05-05 19:55 | 50.46547 | 10.52225 | 19515 ft | 390 kts | 269° |
| 2026-05-05 19:55 | 50.46606 | 10.47978 | 19065 ft | 388 kts | 269° |
| 2026-05-05 19:55 | 50.46664 | 10.43764 | 18592 ft | 385 kts | 268° |
| 2026-05-05 19:55 | 50.46720 | 10.39578 | 18128 ft | 382 kts | 268° |
| 2026-05-05 19:56 | 50.46773 | 10.35420 | 17598 ft | 379 kts | 268° |
| 2026-05-05 19:56 | 50.46824 | 10.31355 | 17077 ft | 375 kts | 269° |
| 2026-05-05 19:56 | 50.46873 | 10.27281 | 16560 ft | 373 kts | 269° |
| 2026-05-05 19:56 | 50.46921 | 10.23217 | 16061 ft | 370 kts | 269° |
| 2026-05-05 19:57 | 50.46964 | 10.19198 | 15560 ft | 367 kts | 269° |
| 2026-05-05 19:57 | 50.47007 | 10.15191 | 15063 ft | 366 kts | 269° |
| 2026-05-05 19:57 | 50.47051 | 10.11212 | 14576 ft | 362 kts | 269° |
| 2026-05-05 19:57 | 50.47093 | 10.07287 | 14100 ft | 358 kts | 269° |
| 2026-05-05 19:58 | 50.47133 | 10.03382 | 13632 ft | 357 kts | 269° |
| 2026-05-05 19:58 | 50.47170 | 9.99507 | 13102 ft | 354 kts | 269° |
| 2026-05-05 19:58 | 50.47206 | 9.95656 | 12582 ft | 350 kts | 269° |
| 2026-05-05 19:58 | 50.47241 | 9.91863 | 12064 ft | 347 kts | 270° |
| 2026-05-05 19:59 | 50.47208 | 9.88092 | 11548 ft | 344 kts | 261° |
| 2026-05-05 19:59 | 50.46471 | 9.84564 | 11065 ft | 337 kts | 238° |
| 2026-05-05 19:59 | 50.45185 | 9.81561 | 10861 ft | 328 kts | 234° |
| 2026-05-05 19:59 | 50.43862 | 9.78640 | 10805 ft | 327 kts | 233° |
| 2026-05-05 20:00 | 50.42529 | 9.75705 | 10808 ft | 331 kts | 234° |
| 2026-05-05 20:00 | 50.41216 | 9.72817 | 10809 ft | 328 kts | 234° |
| 2026-05-05 20:00 | 50.39893 | 9.69905 | 10811 ft | 327 kts | 234° |
| 2026-05-05 20:00 | 50.38572 | 9.66998 | 10807 ft | 327 kts | 234° |
| 2026-05-05 20:01 | 50.37254 | 9.64102 | 10812 ft | 327 kts | 234° |
| 2026-05-05 20:01 | 50.35934 | 9.61202 | 10735 ft | 326 kts | 233° |
| 2026-05-05 20:01 | 50.34625 | 9.58322 | 10442 ft | 324 kts | 233° |
| 2026-05-05 20:01 | 50.33326 | 9.55467 | 10152 ft | 317 kts | 233° |
| 2026-05-05 20:02 | 50.32078 | 9.52713 | 10027 ft | 303 kts | 233° |
| 2026-05-05 20:02 | 50.30886 | 9.50091 | 9906 ft | 289 kts | 233° |
| 2026-05-05 20:02 | 50.29751 | 9.47585 | 9728 ft | 277 kts | 234° |
| 2026-05-05 20:02 | 50.28635 | 9.45141 | 9307 ft | 275 kts | 233° |
| 2026-05-05 20:03 | 50.27504 | 9.42746 | 8874 ft | 273 kts | 232° |
| 2026-05-05 20:03 | 50.26380 | 9.40377 | 8477 ft | 270 kts | 233° |
| 2026-05-05 20:03 | 50.25251 | 9.38079 | 8132 ft | 265 kts | 232° |
| 2026-05-05 20:03 | 50.24135 | 9.35821 | 7874 ft | 262 kts | 232° |
| 2026-05-05 20:04 | 50.23006 | 9.33535 | 7813 ft | 266 kts | 233° |
| 2026-05-05 20:04 | 50.21879 | 9.31257 | 7812 ft | 265 kts | 232° |
| 2026-05-05 20:04 | 50.20754 | 9.28984 | 7812 ft | 265 kts | 232° |
| 2026-05-05 20:04 | 50.19623 | 9.26699 | 7809 ft | 265 kts | 233° |
| 2026-05-05 20:05 | 50.18490 | 9.24426 | 7809 ft | 265 kts | 232° |
| 2026-05-05 20:05 | 50.17356 | 9.22147 | 7812 ft | 270 kts | 232° |
| 2026-05-05 20:05 | 50.16235 | 9.19664 | 7801 ft | 279 kts | 245° |
| 2026-05-05 20:05 | 50.15741 | 9.16846 | 7802 ft | 263 kts | 259° |
| 2026-05-05 20:06 | 50.15465 | 9.14066 | 7800 ft | 259 kts | 261° |
| 2026-05-05 20:06 | 50.15220 | 9.11375 | 7798 ft | 243 kts | 261° |
| 2026-05-05 20:06 | 50.14991 | 9.08854 | 7801 ft | 230 kts | 260° |
| 2026-05-05 20:06 | 50.14759 | 9.06356 | 7804 ft | 234 kts | 262° |
| 2026-05-05 20:07 | 50.14548 | 9.03853 | 7790 ft | 232 kts | 258° |
| 2026-05-05 20:07 | 50.14167 | 9.01425 | 7555 ft | 230 kts | 252° |
| 2026-05-05 20:07 | 50.13655 | 8.99074 | 7180 ft | 229 kts | 249° |
| 2026-05-05 20:07 | 50.13100 | 8.96746 | 6760 ft | 229 kts | 249° |
| 2026-05-05 20:08 | 50.12547 | 8.94425 | 6431 ft | 224 kts | 249° |
| 2026-05-05 20:08 | 50.12021 | 8.92214 | 6332 ft | 211 kts | 249° |
| 2026-05-05 20:08 | 50.11517 | 8.90101 | 6064 ft | 207 kts | 249° |
| 2026-05-05 20:08 | 50.11018 | 8.88008 | 5638 ft | 205 kts | 249° |
| 2026-05-05 20:09 | 50.10530 | 8.85960 | 5368 ft | 195 kts | 249° |
| 2026-05-05 20:09 | 50.10077 | 8.84068 | 5261 ft | 177 kts | 249° |
| 2026-05-05 20:09 | 50.09627 | 8.82221 | 5275 ft | 191 kts | 249° |
| 2026-05-05 20:09 | 50.09131 | 8.80192 | 5531 ft | 216 kts | 249° |
| 2026-05-05 20:10 | 50.08575 | 8.77923 | 5901 ft | 229 kts | 249° |
| 2026-05-05 20:10 | 50.08006 | 8.75612 | 5991 ft | 229 kts | 249° |
| 2026-05-05 20:10 | 50.07436 | 8.73298 | 6000 ft | 229 kts | 249° |
| 2026-05-05 20:10 | 50.06864 | 8.70986 | 6001 ft | 229 kts | 249° |
| 2026-05-05 20:11 | 50.06162 | 8.68777 | 6001 ft | 228 kts | 230° |
| 2026-05-05 20:11 | 50.04862 | 8.67386 | 6003 ft | 232 kts | 199° |
| 2026-05-05 20:11 | 50.03254 | 8.67279 | 6003 ft | 238 kts | 168° |
| 2026-05-05 20:11 | 50.01804 | 8.68525 | 6004 ft | 244 kts | 136° |
| 2026-05-05 20:12 | 50.00940 | 8.70807 | 6003 ft | 250 kts | 107° |
| 2026-05-05 20:12 | 50.00556 | 8.73454 | 5999 ft | 251 kts | 103° |
| 2026-05-05 20:12 | 50.00199 | 8.76118 | 6000 ft | 251 kts | 103° |
| 2026-05-05 20:12 | 49.99847 | 8.78781 | 6000 ft | 251 kts | 101° |
| 2026-05-05 20:13 | 49.99948 | 8.81468 | 5997 ft | 254 kts | 71° |
| 2026-05-05 20:13 | 50.00672 | 8.83943 | 5994 ft | 255 kts | 63° |
| 2026-05-05 20:13 | 50.01457 | 8.86404 | 5991 ft | 254 kts | 63° |
| 2026-05-05 20:13 | 50.02243 | 8.88862 | 5994 ft | 254 kts | 63° |
| 2026-05-05 20:14 | 50.03032 | 8.91332 | 5990 ft | 254 kts | 63° |
| 2026-05-05 20:14 | 50.03819 | 8.93796 | 5988 ft | 254 kts | 63° |
| 2026-05-05 20:14 | 50.04602 | 8.96255 | 5990 ft | 254 kts | 63° |
| 2026-05-05 20:14 | 50.05389 | 8.98716 | 5987 ft | 254 kts | 63° |
| 2026-05-05 20:15 | 50.06173 | 9.01172 | 5967 ft | 252 kts | 63° |
| 2026-05-05 20:15 | 50.06954 | 9.03620 | 5731 ft | 252 kts | 63° |
| 2026-05-05 20:15 | 50.07736 | 9.06060 | 5418 ft | 252 kts | 63° |
| 2026-05-05 20:15 | 50.08517 | 9.08497 | 5104 ft | 251 kts | 63° |
| 2026-05-05 20:16 | 50.09296 | 9.10926 | 4829 ft | 250 kts | 63° |
| 2026-05-05 20:16 | 50.10068 | 9.13330 | 4554 ft | 248 kts | 63° |
| 2026-05-05 20:16 | 50.10827 | 9.15706 | 4248 ft | 247 kts | 64° |
| 2026-05-05 20:16 | 50.11804 | 9.17852 | 4019 ft | 239 kts | 37° |
| 2026-05-05 20:17 | 50.13319 | 9.18914 | 3986 ft | 243 kts | 4° |
| 2026-05-05 20:17 | 50.14946 | 9.18627 | 3978 ft | 233 kts | 333° |
| 2026-05-05 20:17 | 50.16183 | 9.17093 | 3976 ft | 228 kts | 301° |
| 2026-05-05 20:17 | 50.16698 | 9.14799 | 3982 ft | 225 kts | 274° |
| 2026-05-05 20:18 | 50.16647 | 9.12384 | 3975 ft | 223 kts | 258° |
| 2026-05-05 20:18 | 50.16249 | 9.10044 | 3977 ft | 223 kts | 251° |
| 2026-05-05 20:18 | 50.15726 | 9.07770 | 3977 ft | 223 kts | 249° |
| 2026-05-05 20:18 | 50.15183 | 9.05502 | 3982 ft | 223 kts | 249° |
| 2026-05-05 20:19 | 50.14643 | 9.03233 | 3981 ft | 223 kts | 249° |
| 2026-05-05 20:19 | 50.14104 | 9.00967 | 3982 ft | 223 kts | 249° |
| 2026-05-05 20:19 | 50.13566 | 8.98708 | 3985 ft | 223 kts | 249° |
| 2026-05-05 20:19 | 50.13026 | 8.96438 | 3984 ft | 223 kts | 249° |
| 2026-05-05 20:20 | 50.12488 | 8.94179 | 3988 ft | 222 kts | 249° |
| 2026-05-05 20:20 | 50.11969 | 8.91999 | 3983 ft | 206 kts | 249° |
| 2026-05-05 20:20 | 50.11473 | 8.89920 | 3990 ft | 207 kts | 249° |
| 2026-05-05 20:20 | 50.10965 | 8.87792 | 3992 ft | 212 kts | 249° |
| 2026-05-05 20:21 | 50.10454 | 8.85647 | 3955 ft | 207 kts | 249° |
| 2026-05-05 20:21 | 50.09961 | 8.83579 | 3769 ft | 200 kts | 249° |
| 2026-05-05 20:21 | 50.09494 | 8.81624 | 3510 ft | 190 kts | 249° |
| 2026-05-05 20:21 | 50.09045 | 8.79741 | 3249 ft | 179 kts | 249° |
| 2026-05-05 20:22 | 50.08618 | 8.77951 | 3005 ft | 179 kts | 249° |
| 2026-05-05 20:22 | 50.08185 | 8.76139 | 2771 ft | 178 kts | 249° |
| 2026-05-05 20:22 | 50.07754 | 8.74330 | 2522 ft | 177 kts | 249° |
| 2026-05-05 20:22 | 50.07350 | 8.72638 | 2302 ft | 155 kts | 249° |
| 2026-05-05 20:23 | 50.06998 | 8.71165 | 2095 ft | 137 kts | 249° |
| 2026-05-05 20:23 | 50.06677 | 8.69823 | 1917 ft | 132 kts | 249° |
| 2026-05-05 20:23 | 50.06357 | 8.68485 | 1746 ft | 131 kts | 248° |
| 2026-05-05 20:23 | 50.06041 | 8.67160 | 1604 ft | 132 kts | 248° |
| 2026-05-05 20:24 | 50.05722 | 8.65820 | 1406 ft | 132 kts | 248° |
| 2026-05-05 20:24 | 50.05400 | 8.64476 | 1163 ft | 134 kts | 249° |
| 2026-05-05 20:24 | 50.05078 | 8.63131 | 1047 ft | 133 kts | 249° |
| 2026-05-05 20:24 | 50.04748 | 8.61768 | 925 ft | 135 kts | 248° |
| 2026-05-05 20:25 | 50.04419 | 8.60418 | 690 ft | 136 kts | 249° |
| 2026-05-05 20:25 | 50.04094 | 8.59029 | 459 ft | 133 kts | 249° |
| 2026-05-05 20:25 | 50.03782 | 8.57708 | 365 ft | 125 kts | 249° |
| 2026-05-05 20:25 | 50.03534 | 8.56699 | 357 ft | 71 kts | 249° |
| 2026-05-05 20:26 | 50.03439 | 8.56217 | 350 ft | 37 kts | 263° |
| 2026-05-05 20:26 | 50.03461 | 8.55838 | 348 ft | 16 kts | 280° |
| 2026-05-05 20:26 | 50.03472 | 8.55748 | 344 ft | 0 kts | 280° |
| 2026-05-05 20:27 | 50.03474 | 8.55741 | 344 ft | 2 kts | 291° |
| 2026-05-05 20:27 | 50.03509 | 8.55698 | 345 ft | 13 kts | 347° |
| 2026-05-05 20:27 | 50.03556 | 8.55757 | 350 ft | 15 kts | 55° |
| 2026-05-05 20:27 | 50.03611 | 8.55975 | 355 ft | 25 kts | 70° |
| 2026-05-05 20:28 | 50.03674 | 8.56238 | 357 ft | 27 kts | 70° |
| 2026-05-05 20:28 | 50.03742 | 8.56511 | 358 ft | 28 kts | 69° |
| 2026-05-05 20:28 | 50.03817 | 8.56824 | 360 ft | 35 kts | 70° |
| 2026-05-05 20:28 | 50.03901 | 8.57177 | 363 ft | 34 kts | 68° |
| 2026-05-05 20:29 | 50.03979 | 8.57508 | 366 ft | 32 kts | 70° |
| 2026-05-05 20:29 | 50.04053 | 8.57830 | 366 ft | 31 kts | 69° |
| 2026-05-05 20:29 | 50.04131 | 8.58146 | 370 ft | 31 kts | 69° |
| 2026-05-05 20:29 | 50.04209 | 8.58458 | 369 ft | 31 kts | 69° |
| 2026-05-05 20:30 | 50.04283 | 8.58770 | 371 ft | 30 kts | 69° |
| 2026-05-05 20:30 | 50.04352 | 8.59065 | 377 ft | 28 kts | 70° |
| 2026-05-05 20:30 | 50.04423 | 8.59358 | 375 ft | 29 kts | 69° |
| 2026-05-05 20:30 | 50.04519 | 8.59471 | 374 ft | 18 kts | 358° |
| 2026-05-05 20:31 | 50.04548 | 8.59469 | 373 ft | 0 kts | 357° |
| 2026-05-05 20:32 | 50.04558 | 8.59468 | 373 ft | 4 kts | 357° |
| 2026-05-05 20:32 | 50.04605 | 8.59464 | 372 ft | 9 kts | 357° |
| 2026-05-05 20:33 | 50.04682 | 8.59449 | 372 ft | 13 kts | 346° |
| 2026-05-05 20:33 | 50.04777 | 8.59400 | 372 ft | 16 kts | 340° |
| 2026-05-05 20:33 | 50.04840 | 8.59285 | 370 ft | 5 kts | 275° |
| 2026-05-05 20:33 | 50.04840 | 8.59243 | 368 ft | 6 kts | 285° |
| 2026-05-05 20:34 | 50.04892 | 8.59201 | 368 ft | 11 kts | 342° |
| 2026-05-05 20:34 | 50.04919 | 8.59186 | 367 ft | 2 kts | 339° |
| 2026-05-05 20:34 | 50.04920 | 8.59186 | 367 ft | 0 kts | 339° |